Cooperative Spirit — WDB9878 — position and weather

sailwx.info

Track history (hours):
 
Tides and Currents Weather Stations Pressure Air Temp Water Temp Dewpoint Dewpoint Depression Visibility Wind Speed Wind Dir Waves Ship Positions

Cooperative Spirit

Owner: American River Transportation Company, St Louis, MO. More information available from US FCC via Universal Licensing System and Coast Guard Vessel Documentation Center.

Last reported at 2018-Feb-15 11:01 UTC. Time now 2018-Feb-22 01:04 UTC.
Position N 32°52' W 091°07'.

Length 61 m; draft 3.4 m.

Type: Towing. MMSI: 366984350.

Date/timePositionNaut miles runAvg speedWind from/ knotsBaromVisibWave heightAir tempDewpointWater temp
2018-Feb-15 11:01N 32°52' W 091°07'5 4.5
2018-Feb-15 09:58N 32°47' W 091°10'2 4.8
2018-Feb-15 09:30N 32°45' W 091°09'6 3.1
2018-Feb-15 07:39N 32°41' W 091°04'1 4.9
2018-Feb-15 07:23N 32°41' W 091°06'2 5.3
2018-Feb-15 07:01N 32°40' W 091°08'2 4.5
2018-Feb-15 06:31N 32°38' W 091°09'2 4.5
2018-Feb-15 06:01N 32°36' W 091°08'2 4.8
2018-Feb-15 05:31N 32°34' W 091°06'2 4.8
2018-Feb-15 05:00N 32°32' W 091°06'2 4.8
2018-Feb-15 04:31N 32°30' W 091°07'3 5.1
2018-Feb-15 04:01N 32°27' W 091°05'3 5.2
2018-Feb-15 03:30N 32°26' W 091°03'3 5.0
2018-Feb-15 03:00N 32°25' W 090°60'2 4.5
2018-Feb-15 02:31N 32°23' W 091°00'2 3.8
2018-Feb-15 02:01N 32°21' W 090°59'3 5.1
2018-Feb-15 01:30N 32°21' W 090°56'2 4.3
2018-Feb-15 01:00N 32°20' W 090°54'2 3.5
2018-Feb-15 00:31N 32°18' W 090°55'1 1.1
2018-Feb-15 00:01N 32°18' W 090°56'3 5.1
2018-Feb-14 23:30N 32°16' W 090°58'2 4.1
2018-Feb-14 23:01N 32°14' W 090°59'2 3.2
2018-Feb-14 22:31N 32°13' W 090°59'2 4.8
2018-Feb-14 22:00N 32°10' W 090°60'2 4.9
2018-Feb-14 21:30N 32°08' W 091°00'2 4.1
2018-Feb-14 21:01N 32°07' W 091°03'3 5.1
2018-Feb-14 20:30N 32°08' W 091°06'2 3.7
2018-Feb-14 20:00N 32°06' W 091°06'3 5.4
2018-Feb-14 19:23N 32°04' W 091°03'2 4.8
2018-Feb-14 19:00N 32°02' W 091°04'19 4.4
2018-Feb-14 14:44N 31°50' W 091°21'  
2018-Feb-06 11:20N 32°02' W 091°04'5 7.7
2018-Feb-06 10:38N 32°07' W 091°06'1 6.7
2018-Feb-06 10:30N 32°07' W 091°07'2 4.6
2018-Feb-06 10:00N 32°08' W 091°04'3 6.4
2018-Feb-06 09:30N 32°09' W 091°00'4 7.6
2018-Feb-06 09:00N 32°12' W 090°59'4 7.7
2018-Feb-06 08:30N 32°16' W 090°58'4 7.2
2018-Feb-06 08:00N 32°18' W 090°55'2 4.2
2018-Feb-06 07:30N 32°20' W 090°54'3 6.8
2018-Feb-06 07:00N 32°21' W 090°58'3 6.3
2018-Feb-06 06:30N 32°24' W 090°59'4 7.0
2018-Feb-06 06:00N 32°26' W 091°03'4 7.6
2018-Feb-06 05:30N 32°28' W 091°06'4 7.5
2018-Feb-06 05:00N 32°32' W 091°06'4 7.2
2018-Feb-06 04:30N 32°35' W 091°08'4 7.4
2018-Feb-06 03:59N 32°39' W 091°09'  
Track history (hours):
 
Tides and Currents Weather Stations Pressure Air Temp Water Temp Dewpoint Dewpoint Depression Visibility Wind Speed Wind Dir Waves Ship Positions

Cooperative Spirit

Owner: American River Transportation Company, St Louis, MO. More information available from US FCC via Universal Licensing System and Coast Guard Vessel Documentation Center.

Last reported at 2018-Feb-15 11:01 UTC. Time now 2018-Feb-22 01:04 UTC.
Position N 32°52' W 091°07'.

Length 61 m; draft 3.4 m.

Type: Towing. MMSI: 366984350.

Date/timePositionNaut miles runAvg speedWind from/ knotsBaromVisibWave heightAir tempDewpointWater temp
2018-Feb-15 11:01N 32°52' W 091°07'5 4.5
2018-Feb-15 09:58N 32°47' W 091°10'2 4.8
2018-Feb-15 09:30N 32°45' W 091°09'6 3.1
2018-Feb-15 07:39N 32°41' W 091°04'1 4.9
2018-Feb-15 07:23N 32°41' W 091°06'2 5.3
2018-Feb-15 07:01N 32°40' W 091°08'2 4.5
2018-Feb-15 06:31N 32°38' W 091°09'2 4.5
2018-Feb-15 06:01N 32°36' W 091°08'2 4.8
2018-Feb-15 05:31N 32°34' W 091°06'2 4.8
2018-Feb-15 05:00N 32°32' W 091°06'2 4.8
2018-Feb-15 04:31N 32°30' W 091°07'3 5.1
2018-Feb-15 04:01N 32°27' W 091°05'3 5.2
2018-Feb-15 03:30N 32°26' W 091°03'3 5.0
2018-Feb-15 03:00N 32°25' W 090°60'2 4.5
2018-Feb-15 02:31N 32°23' W 091°00'2 3.8
2018-Feb-15 02:01N 32°21' W 090°59'3 5.1
2018-Feb-15 01:30N 32°21' W 090°56'2 4.3
2018-Feb-15 01:00N 32°20' W 090°54'2 3.5
2018-Feb-15 00:31N 32°18' W 090°55'1 1.1
2018-Feb-15 00:01N 32°18' W 090°56'3 5.1
2018-Feb-14 23:30N 32°16' W 090°58'2 4.1
2018-Feb-14 23:01N 32°14' W 090°59'2 3.2
2018-Feb-14 22:31N 32°13' W 090°59'2 4.8
2018-Feb-14 22:00N 32°10' W 090°60'2 4.9
2018-Feb-14 21:30N 32°08' W 091°00'2 4.1
2018-Feb-14 21:01N 32°07' W 091°03'3 5.1
2018-Feb-14 20:30N 32°08' W 091°06'2 3.7
2018-Feb-14 20:00N 32°06' W 091°06'3 5.4
2018-Feb-14 19:23N 32°04' W 091°03'2 4.8
2018-Feb-14 19:00N 32°02' W 091°04'19 4.4
2018-Feb-14 14:44N 31°50' W 091°21'  
2018-Feb-06 11:20N 32°02' W 091°04'5 7.7
2018-Feb-06 10:38N 32°07' W 091°06'1 6.7
2018-Feb-06 10:30N 32°07' W 091°07'2 4.6
2018-Feb-06 10:00N 32°08' W 091°04'3 6.4
2018-Feb-06 09:30N 32°09' W 091°00'4 7.6
2018-Feb-06 09:00N 32°12' W 090°59'4 7.7
2018-Feb-06 08:30N 32°16' W 090°58'4 7.2
2018-Feb-06 08:00N 32°18' W 090°55'2 4.2
2018-Feb-06 07:30N 32°20' W 090°54'3 6.8
2018-Feb-06 07:00N 32°21' W 090°58'3 6.3
2018-Feb-06 06:30N 32°24' W 090°59'4 7.0
2018-Feb-06 06:00N 32°26' W 091°03'4 7.6
2018-Feb-06 05:30N 32°28' W 091°06'4 7.5
2018-Feb-06 05:00N 32°32' W 091°06'4 7.2
2018-Feb-06 04:30N 32°35' W 091°08'4 7.4
2018-Feb-06 03:59N 32°39' W 091°09'  

Dump ship's entire track history